Time;durP1;ratioP1;P1;durP2;ratioP2;P2;SDS_P1;SDS_P2;PMS_P1;PMS_P2;Temp;Humidity;BMP_temperature;BMP_pressure;BME280_temperature;BME280_humidity;BME280_pressure;Samples;Min_cycle;Max_cycle;Signal;HPM_P1;HPM_P2
2022/06/14 00:00:55;;;;;;;14.02;3.92;;;10.10;99.90;;;;;;6347245;22;20068;-87
2022/06/14 00:03:26;;;;;;;15.80;4.65;;;10.70;99.90;;;;;;6348433;22;20439;-86
2022/06/14 00:05:53;;;;;;;12.50;3.50;;;10.00;99.90;;;;;;6350115;22;20385;-87
2022/06/14 00:08:20;;;;;;;12.00;4.05;;;10.00;99.90;;;;;;6344896;22;20093;-87
2022/06/14 00:10:47;;;;;;;12.98;3.95;;;10.00;99.90;;;;;;6341593;22;20457;-86
2022/06/14 00:13:14;;;;;;;14.43;3.95;;;10.00;99.90;;;;;;6370673;22;20059;-87
2022/06/14 00:15:39;;;;;;;13.93;3.90;;;9.90;99.90;;;;;;6342354;22;20350;-86
2022/06/14 00:18:05;;;;;;;12.77;3.80;;;9.90;99.90;;;;;;6369332;22;20010;-86
2022/06/14 00:20:31;;;;;;;14.43;4.20;;;9.90;99.90;;;;;;6365118;22;20021;-87
2022/06/14 00:22:57;;;;;;;13.65;4.15;;;10.50;99.90;;;;;;6341632;22;20342;-87
2022/06/14 00:25:33;;;;;;;11.77;3.80;;;9.80;99.90;;;;;;6341562;22;20071;-86
2022/06/14 00:28:01;;;;;;;14.48;5.90;;;9.80;99.90;;;;;;6369667;22;20431;-87
2022/06/14 00:30:27;;;;;;;12.77;4.10;;;9.80;99.90;;;;;;6342384;22;20010;-87
2022/06/14 00:32:53;;;;;;;13.77;4.50;;;9.70;99.90;;;;;;6368699;22;20384;-87
2022/06/14 00:35:19;;;;;;;13.02;3.90;;;9.70;99.90;;;;;;6341937;22;20018;-87
2022/06/14 00:37:45;;;;;;;14.82;4.10;;;9.60;99.90;;;;;;6341803;22;20006;-87
2022/06/14 00:40:17;;;;;;;14.23;4.22;;;9.50;99.90;;;;;;6369368;22;20091;-86
2022/06/14 00:42:43;;;;;;;13.20;4.15;;;10.30;99.90;;;;;;6369672;22;20523;-88
2022/06/14 00:45:29;;;;;;;13.63;3.83;;;10.00;99.90;;;;;;6341922;22;20443;-88
2022/06/14 00:48:14;;;;;;;11.27;4.18;;;9.50;99.90;;;;;;6263343;22;20442;-88
2022/06/14 00:50:48;;;;;;;11.10;4.22;;;9.40;99.90;;;;;;6345639;22;20019;-88
2022/06/14 00:53:23;;;;;;;12.48;4.20;;;9.70;99.90;;;;;;6369026;22;20022;-89
2022/06/14 00:56:42;;;;;;;13.68;3.97;;;9.30;99.90;;;;;;6340087;22;20018;-88
2022/06/14 00:59:41;;;;;;;13.90;4.15;;;9.00;99.90;;;;;;6309832;22;20026;-88
2022/06/14 01:02:29;;;;;;;11.65;4.00;;;9.20;99.90;;;;;;6310518;22;20067;-88
2022/06/14 01:05:05;;;;;;;11.65;3.90;;;9.30;99.90;;;;;;6310347;22;20519;-88
2022/06/14 01:07:50;;;;;;;12.13;4.28;;;8.60;99.90;;;;;;6337261;22;20037;-88
2022/06/14 01:10:47;;;;;;;13.98;4.30;;;9.00;99.90;;;;;;6338755;22;20060;-88
2022/06/14 01:13:23;;;;;;;12.30;4.60;;;8.80;99.90;;;;;;6311195;22;20019;-86
2022/06/14 01:16:09;;;;;;;12.18;4.28;;;9.50;99.90;;;;;;6336965;22;20019;-86
2022/06/14 01:18:39;;;;;;;15.75;4.85;;;8.90;99.90;;;;;;6310679;22;20014;-86
2022/06/14 01:21:05;;;;;;;12.82;5.00;;;8.90;99.90;;;;;;6309752;22;20015;-86
2022/06/14 01:23:32;;;;;;;11.70;4.57;;;8.90;99.90;;;;;;6310494;22;20069;-86
2022/06/14 01:26:14;;;;;;;14.40;4.82;;;8.90;99.90;;;;;;6310158;22;20443;-86
2022/06/14 01:28:44;;;;;;;15.10;5.15;;;8.80;99.90;;;;;;6309942;22;20365;-86
2022/06/14 01:31:10;;;;;;;15.00;4.90;;;8.80;99.90;;;;;;6310291;22;20369;-86
2022/06/14 01:33:43;;;;;;;12.57;5.30;;;8.80;99.90;;;;;;6338493;22;20018;-86
2022/06/14 01:36:14;;;;;;;15.57;5.32;;;8.60;99.90;;;;;;6309656;22;20053;-86
2022/06/14 01:38:44;;;;;;;15.57;4.65;;;8.70;99.90;;;;;;6338227;22;20015;-86
2022/06/14 01:41:31;;;;;;;13.52;5.35;;;8.80;99.90;;;;;;6338606;22;20022;-86
2022/06/14 01:48:05;;;;;;;14.75;4.97;;;8.70;99.90;;;;;;6311476;22;20018;-86
2022/06/14 01:54:39;;;;;;;17.38;5.20;;;8.20;99.90;;;;;;6311952;22;20097;-86
2022/06/14 01:57:52;;;;;;;14.77;5.03;;;8.60;99.90;;;;;;6311196;22;20094;-87
2022/06/14 02:00:46;;;;;;;14.48;5.30;;;8.60;99.90;;;;;;6312087;22;20466;-86
2022/06/14 02:06:49;;;;;;;19.25;5.53;;;8.50;99.90;;;;;;6311737;22;20018;-86
2022/06/14 02:09:55;;;;;;;12.95;5.45;;;8.50;99.90;;;;;;6312291;22;20045;-87
2022/06/14 02:13:11;;;;;;;15.55;5.75;;;7.90;99.90;;;;;;6312327;22;20026;-87
2022/06/14 02:16:18;;;;;;;17.63;5.70;;;8.40;99.90;;;;;;6312777;22;20101;-86
2022/06/14 02:19:16;;;;;;;18.67;5.50;;;8.40;99.90;;;;;;6338925;22;20019;-87
2022/06/14 02:22:02;;;;;;;17.52;5.63;;;8.30;99.90;;;;;;6339031;22;20509;-87
2022/06/14 02:24:51;;;;;;;20.27;5.38;;;8.30;99.90;;;;;;6337670;22;20103;-87
2022/06/14 02:27:44;;;;;;;16.08;5.55;;;8.40;99.90;;;;;;6312705;22;20032;-87
2022/06/14 02:31:22;;;;;;;17.60;5.90;;;8.50;99.90;;;;;;6311772;22;20140;-87
2022/06/14 02:34:22;;;;;;;16.95;5.78;;;8.50;99.90;;;;;;6311355;22;20065;-87
2022/06/14 02:37:28;;;;;;;14.05;5.93;;;8.50;99.90;;;;;;6311572;22;20068;-87
2022/06/14 02:40:35;;;;;;;14.55;5.55;;;8.20;99.90;;;;;;6310694;22;20048;-87
2022/06/14 02:43:40;;;;;;;17.15;6.53;;;8.40;99.90;;;;;;6311055;22;20014;-86
2022/06/14 02:46:38;;;;;;;14.93;5.13;;;8.40;99.90;;;;;;6338724;22;20019;-87
2022/06/14 02:49:54;;;;;;;15.35;5.53;;;9.70;99.90;;;;;;6338457;22;20010;-87
2022/06/14 02:52:35;;;;;;;14.07;5.88;;;8.10;99.90;;;;;;6338623;22;20046;-87
2022/06/14 02:55:22;;;;;;;15.82;5.40;;;8.50;99.90;;;;;;6339602;22;20015;-87
2022/06/14 02:58:41;;;;;;;17.40;5.80;;;8.40;99.90;;;;;;6340112;22;20014;-87
2022/06/14 03:10:19;;;;;;;16.00;5.90;;;8.70;99.90;;;;;;6311514;22;19946;-87
2022/06/14 03:13:14;;;;;;;;;;;8.80;99.90;;;;;;6340373;22;20015;-87
2022/06/14 03:16:43;;;;;;;12.75;5.25;;;9.20;99.90;;;;;;6339449;22;19914;-87
2022/06/14 03:19:47;;;;;;;16.02;6.32;;;8.50;99.90;;;;;;6183424;23;20024;-87
2022/06/14 03:22:36;;;;;;;14.00;5.97;;;8.90;99.90;;;;;;6065155;23;20078;-87
2022/06/14 03:25:23;;;;;;;19.17;6.47;;;8.80;99.90;;;;;;6155070;23;20449;-87
2022/06/14 03:28:25;;;;;;;17.95;6.97;;;9.90;99.90;;;;;;6194856;22;20019;-87
2022/06/14 03:31:28;;;;;;;16.02;6.53;;;8.80;99.90;;;;;;6311169;22;20015;-87
2022/06/14 03:34:40;;;;;;;16.15;5.90;;;8.90;99.90;;;;;;6311145;22;20026;-87
2022/06/14 03:37:37;;;;;;;14.60;5.90;;;9.00;99.90;;;;;;6293085;22;20350;-87
2022/06/14 03:40:39;;;;;;;21.00;6.65;;;9.00;99.90;;;;;;6311241;22;20015;-87
2022/06/14 03:43:05;;;;;;;16.52;6.43;;;10.00;99.90;;;;;;6310194;22;20026;-87
2022/06/14 03:46:35;;;;;;;19.45;6.43;;;9.80;99.90;;;;;;6311398;22;20010;-87
2022/06/14 03:49:26;;;;;;;14.25;6.07;;;9.00;99.90;;;;;;6182151;23;20100;-87
2022/06/14 03:52:19;;;;;;;15.05;6.20;;;9.20;99.90;;;;;;6157917;23;20009;-87
2022/06/14 03:55:30;;;;;;;19.27;6.45;;;9.90;99.90;;;;;;6157411;23;20083;-87
2022/06/14 03:58:36;;;;;;;15.73;5.90;;;9.30;99.90;;;;;;6157943;23;20327;-87
2022/06/14 04:01:46;;;;;;;15.90;6.32;;;9.30;99.90;;;;;;6161577;23;20045;-87
2022/06/14 04:04:30;;;;;;;14.50;6.30;;;9.40;99.90;;;;;;6040669;23;20035;-87
2022/06/14 04:07:36;;;;;;;18.65;7.18;;;9.40;99.90;;;;;;6063151;23;20317;-87
2022/06/14 04:10:45;;;;;;;15.95;6.68;;;9.50;99.90;;;;;;6064614;23;20023;-87
2022/06/14 04:13:29;;;;;;;18.55;6.43;;;9.60;99.90;;;;;;6065770;23;20397;-87
2022/06/14 04:16:36;;;;;;;15.40;6.15;;;9.60;99.90;;;;;;6040998;23;20065;-87
2022/06/14 04:19:45;;;;;;;14.05;6.10;;;9.50;99.90;;;;;;6065107;23;20022;-87
2022/06/14 04:22:46;;;;;;;14.77;5.70;;;9.50;99.90;;;;;;6104273;23;20017;-87
2022/06/14 04:25:31;;;;;;;17.30;6.75;;;9.60;99.90;;;;;;6257459;22;20011;-87
2022/06/14 04:28:35;;;;;;;15.93;5.55;;;10.20;99.90;;;;;;6338636;22;20575;-87
2022/06/14 04:31:36;;;;;;;13.77;6.10;;;9.60;99.90;;;;;;6337888;22;20045;-87
2022/06/14 04:34:12;;;;;;;14.90;6.28;;;9.50;99.90;;;;;;6311085;22;20097;-87
2022/06/14 04:36:55;;;;;;;17.00;6.20;;;9.20;99.90;;;;;;6310603;22;20022;-87
2022/06/14 04:39:30;;;;;;;15.60;6.30;;;10.10;99.90;;;;;;6310094;22;20022;-87
2022/06/14 04:42:08;;;;;;;15.93;6.35;;;9.60;99.90;;;;;;6310531;22;20446;-87
2022/06/14 04:44:56;;;;;;;17.52;6.45;;;9.60;99.90;;;;;;6337952;22;20339;-87
2022/06/14 04:47:45;;;;;;;16.25;6.15;;;9.70;99.90;;;;;;6303511;22;20016;-87
2022/06/14 04:50:38;;;;;;;14.30;6.72;;;9.60;99.90;;;;;;6305711;22;20072;-87
2022/06/14 04:53:38;;;;;;;19.33;6.10;;;9.70;99.90;;;;;;6306046;22;20019;-87
2022/06/14 04:56:46;;;;;;;14.23;6.18;;;9.80;99.90;;;;;;6304901;22;20384;-87
2022/06/14 04:59:32;;;;;;;15.10;6.53;;;9.60;99.90;;;;;;6306008;22;20455;-86
2022/06/14 05:02:31;;;;;;;17.13;7.22;;;10.70;99.90;;;;;;6305193;22;20023;-87
2022/06/14 05:05:38;;;;;;;17.90;6.70;;;10.00;99.90;;;;;;6305339;22;20039;-87
2022/06/14 05:08:31;;;;;;;15.90;6.50;;;10.10;99.90;;;;;;6306158;22;20015;-87
2022/06/14 05:11:56;;;;;;;19.10;6.78;;;10.40;99.90;;;;;;6258434;22;20015;-87
2022/06/14 05:15:02;;;;;;;14.88;6.50;;;10.30;99.90;;;;;;6303967;22;20398;-87
2022/06/14 05:24:45;;;;;;;19.33;6.90;;;10.90;99.90;;;;;;6297439;22;20416;-87
2022/06/14 05:28:04;;;;;;;20.10;6.80;;;11.80;99.90;;;;;;6306368;22;20019;-87
2022/06/14 05:31:15;;;;;;;22.10;7.03;;;10.90;99.90;;;;;;6309089;22;20441;-87
2022/06/14 05:35:00;;;;;;;20.33;6.45;;;11.00;99.90;;;;;;6192472;23;20067;-87
2022/06/14 05:41:04;;;;;;;13.15;5.65;;;11.30;99.90;;;;;;6211514;23;20060;-87
2022/06/14 05:50:55;;;;;;;16.70;6.30;;;11.60;99.90;;;;;;6369616;22;20311;-87
2022/06/14 06:01:06;;;;;;;14.32;5.45;;;12.70;99.90;;;;;;6342349;22;20434;-86
2022/06/14 06:04:29;;;;;;;16.90;5.80;;;12.10;99.90;;;;;;6346837;22;20014;-87
2022/06/14 06:07:47;;;;;;;15.07;5.80;;;12.20;99.90;;;;;;6218707;23;20016;-86
2022/06/14 06:14:07;;;;;;;14.00;4.05;;;12.40;99.90;;;;;;6217627;23;20028;-87
2022/06/14 06:27:11;;;;;;;13.60;3.10;;;12.90;99.90;;;;;;6338958;22;20018;-89
2022/06/14 06:30:25;;;;;;;11.13;3.10;;;12.90;99.90;;;;;;6370125;22;20052;-86
2022/06/14 06:33:03;;;;;;;12.10;3.25;;;13.10;99.90;;;;;;6369071;22;20064;-87
2022/06/14 06:58:21;;;;;;;12.05;3.78;;;13.90;99.90;;;;;;6370310;22;20340;-91
2022/06/14 07:40:36;;;;;;;10.73;3.17;;;15.10;99.90;;;;;;6315766;22;20356;-90
2022/06/14 07:51:16;;;;;;;8.93;2.22;;;15.40;99.90;;;;;;6275633;22;20482;-88
2022/06/14 10:09:21;;;;;;;6.93;2.05;;;18.70;99.90;;;;;;6368927;22;20012;-89
2022/06/14 18:53:49;;;;;;;7.20;2.08;;;20.90;99.00;;;;;;6314821;22;20018;-94
2022/06/14 21:18:33;;;;;;;8.23;3.30;;;14.40;99.90;;;;;;6324423;22;20343;-91
2022/06/14 21:28:34;;;;;;;9.05;3.42;;;14.20;99.90;;;;;;6336650;22;20222;-85
2022/06/14 21:50:03;;;;;;;;;;;;;;;;;;;;;
2022/06/14 21:53:47;;;;;;;8.98;3.50;;;13.70;99.90;;;;;;6210112;23;20019;-85
2022/06/14 22:07:20;;;;;;;9.23;3.55;;;13.50;99.90;;;;;;6127656;23;19917;-86
2022/06/14 22:09:55;;;;;;;9.45;3.42;;;14.40;99.90;;;;;;6124968;23;20440;-86
2022/06/14 22:12:57;;;;;;;9.52;3.75;;;14.20;99.90;;;;;;6152956;23;20028;-85
2022/06/14 22:19:04;;;;;;;10.65;4.05;;;13.10;99.90;;;;;;5951983;24;20063;-86
2022/06/14 22:26:20;;;;;;;10.20;3.60;;;13.00;99.90;;;;;;6083965;23;20030;-86
2022/06/14 22:32:41;;;;;;;9.85;3.58;;;12.90;99.90;;;;;;6008539;23;20019;-87
2022/06/14 22:35:33;;;;;;;9.27;3.40;;;12.90;99.90;;;;;;5984200;23;20020;-87
2022/06/14 22:38:16;;;;;;;12.48;3.72;;;13.80;99.90;;;;;;6007888;23;20024;-87
2022/06/14 22:41:22;;;;;;;8.98;3.47;;;12.90;99.90;;;;;;6008524;23;20093;-87
2022/06/14 22:44:03;;;;;;;10.20;3.70;;;12.40;99.90;;;;;;5984831;23;20134;-87
2022/06/14 22:46:34;;;;;;;9.68;3.75;;;12.60;99.90;;;;;;5984404;23;20057;-87
2022/06/14 22:52:40;;;;;;;;;;;;;;;;;;;;;
2022/06/14 23:02:30;;;;;;;10.30;3.90;;;12.20;99.90;;;;;;6366106;22;20025;-86
2022/06/14 23:12:36;;;;;;;10.13;4.00;;;12.10;99.90;;;;;;6305539;22;20066;-87
